sensor_id;sensor_type;location;lat;lon;timestamp;temperature;humidity
4548;DHT22;2286;51.570;7.090;2023-09-19T00:01:39;16.10;99.90
4548;DHT22;2286;51.570;7.090;2023-09-19T00:04:07;16.10;1.00
4548;DHT22;2286;51.570;7.090;2023-09-19T00:06:35;16.20;1.00
4548;DHT22;2286;51.570;7.090;2023-09-19T00:09:03;16.10;99.90
4548;DHT22;2286;51.570;7.090;2023-09-19T00:11:30;16.10;99.90
4548;DHT22;2286;51.570;7.090;2023-09-19T00:13:57;16.10;99.90
4548;DHT22;2286;51.570;7.090;2023-09-19T00:16:26;16.10;99.90
4548;DHT22;2286;51.570;7.090;2023-09-19T00:18:53;16.00;99.90
4548;DHT22;2286;51.570;7.090;2023-09-19T00:21:22;16.00;99.90
4548;DHT22;2286;51.570;7.090;2023-09-19T00:23:49;15.90;90.20
4548;DHT22;2286;51.570;7.090;2023-09-19T00:26:17;15.90;1.00
4548;DHT22;2286;51.570;7.090;2023-09-19T00:28:46;15.90;1.00
4548;DHT22;2286;51.570;7.090;2023-09-19T00:31:13;15.90;99.90
4548;DHT22;2286;51.570;7.090;2023-09-19T00:33:40;15.90;99.90
4548;DHT22;2286;51.570;7.090;2023-09-19T00:36:08;15.80;99.90
4548;DHT22;2286;51.570;7.090;2023-09-19T00:38:36;15.80;99.90
4548;DHT22;2286;51.570;7.090;2023-09-19T00:41:03;15.80;99.90
4548;DHT22;2286;51.570;7.090;2023-09-19T00:43:31;15.80;99.90
4548;DHT22;2286;51.570;7.090;2023-09-19T00:46:00;15.80;67.00
4548;DHT22;2286;51.570;7.090;2023-09-19T00:48:29;15.80;62.90
4548;DHT22;2286;51.570;7.090;2023-09-19T00:50:59;15.70;99.90
4548;DHT22;2286;51.570;7.090;2023-09-19T00:53:31;15.70;99.90
4548;DHT22;2286;51.570;7.090;2023-09-19T00:56:02;15.70;99.90
4548;DHT22;2286;51.570;7.090;2023-09-19T00:58:31;15.70;99.90
4548;DHT22;2286;51.570;7.090;2023-09-19T01:00:59;15.70;99.90
4548;DHT22;2286;51.570;7.090;2023-09-19T01:03:27;15.70;99.90
4548;DHT22;2286;51.570;7.090;2023-09-19T01:05:54;15.60;99.90
4548;DHT22;2286;51.570;7.090;2023-09-19T01:08:21;15.60;1.00
4548;DHT22;2286;51.570;7.090;2023-09-19T01:10:52;15.50;1.00
4548;DHT22;2286;51.570;7.090;2023-09-19T01:13:29;15.50;1.00
4548;DHT22;2286;51.570;7.090;2023-09-19T01:16:03;15.50;1.00
4548;DHT22;2286;51.570;7.090;2023-09-19T01:18:45;15.40;99.90
4548;DHT22;2286;51.570;7.090;2023-09-19T01:21:21;15.40;69.40
4548;DHT22;2286;51.570;7.090;2023-09-19T01:24:10;15.40;99.90
4548;DHT22;2286;51.570;7.090;2023-09-19T01:27:02;15.40;99.90
4548;DHT22;2286;51.570;7.090;2023-09-19T01:29:38;15.30;99.90
4548;DHT22;2286;51.570;7.090;2023-09-19T01:32:08;15.30;1.00
4548;DHT22;2286;51.570;7.090;2023-09-19T01:34:46;15.30;99.90
4548;DHT22;2286;51.570;7.090;2023-09-19T01:37:16;15.30;1.00
4548;DHT22;2286;51.570;7.090;2023-09-19T01:39:46;15.20;1.00
4548;DHT22;2286;51.570;7.090;2023-09-19T01:42:24;15.10;1.00
4548;DHT22;2286;51.570;7.090;2023-09-19T01:45:02;15.10;1.00
4548;DHT22;2286;51.570;7.090;2023-09-19T01:47:34;15.10;1.00
4548;DHT22;2286;51.570;7.090;2023-09-19T01:50:11;15.10;1.00
4548;DHT22;2286;51.570;7.090;2023-09-19T01:52:47;15.10;1.00
4548;DHT22;2286;51.570;7.090;2023-09-19T01:55:16;15.10;1.00
4548;DHT22;2286;51.570;7.090;2023-09-19T01:57:51;15.10;1.00
4548;DHT22;2286;51.570;7.090;2023-09-19T02:00:22;15.10;99.90
4548;DHT22;2286;51.570;7.090;2023-09-19T02:02:51;15.10;99.90
4548;DHT22;2286;51.570;7.090;2023-09-19T02:05:24;15.00;1.00
4548;DHT22;2286;51.570;7.090;2023-09-19T02:07:53;14.90;99.90
4548;DHT22;2286;51.570;7.090;2023-09-19T02:10:21;14.90;99.90
4548;DHT22;2286;51.570;7.090;2023-09-19T02:12:48;15.00;1.00
4548;DHT22;2286;51.570;7.090;2023-09-19T02:15:16;15.00;1.00
4548;DHT22;2286;51.570;7.090;2023-09-19T02:17:43;15.00;1.00
4548;DHT22;2286;51.570;7.090;2023-09-19T02:20:13;15.00;1.00
4548;DHT22;2286;51.570;7.090;2023-09-19T02:22:41;14.90;1.00
4548;DHT22;2286;51.570;7.090;2023-09-19T02:25:09;14.90;99.90
4548;DHT22;2286;51.570;7.090;2023-09-19T02:27:37;14.90;99.90
4548;DHT22;2286;51.570;7.090;2023-09-19T02:30:06;14.80;99.90
4548;DHT22;2286;51.570;7.090;2023-09-19T02:32:33;14.80;99.90
4548;DHT22;2286;51.570;7.090;2023-09-19T02:35:06;14.80;6.20
4548;DHT22;2286;51.570;7.090;2023-09-19T02:37:34;14.80;1.00
4548;DHT22;2286;51.570;7.090;2023-09-19T02:40:02;14.70;1.00
4548;DHT22;2286;51.570;7.090;2023-09-19T02:42:44;14.70;1.00
4548;DHT22;2286;51.570;7.090;2023-09-19T02:45:15;14.70;1.00
4548;DHT22;2286;51.570;7.090;2023-09-19T02:47:43;14.70;1.00
4548;DHT22;2286;51.570;7.090;2023-09-19T02:50:11;14.80;1.00
4548;DHT22;2286;51.570;7.090;2023-09-19T02:52:41;14.80;1.00
4548;DHT22;2286;51.570;7.090;2023-09-19T02:55:10;14.80;1.00
4548;DHT22;2286;51.570;7.090;2023-09-19T02:57:38;14.80;1.00
4548;DHT22;2286;51.570;7.090;2023-09-19T03:00:07;14.90;1.00
4548;DHT22;2286;51.570;7.090;2023-09-19T03:02:36;14.90;99.90
4548;DHT22;2286;51.570;7.090;2023-09-19T03:05:04;14.80;99.90
4548;DHT22;2286;51.570;7.090;2023-09-19T03:07:33;14.80;99.90
4548;DHT22;2286;51.570;7.090;2023-09-19T03:10:01;14.80;99.90
4548;DHT22;2286;51.570;7.090;2023-09-19T03:12:29;14.80;99.90
4548;DHT22;2286;51.570;7.090;2023-09-19T03:14:57;14.80;99.90
4548;DHT22;2286;51.570;7.090;2023-09-19T03:17:25;14.80;99.90
4548;DHT22;2286;51.570;7.090;2023-09-19T03:19:52;14.70;1.00
4548;DHT22;2286;51.570;7.090;2023-09-19T03:22:20;14.70;1.00
4548;DHT22;2286;51.570;7.090;2023-09-19T03:24:57;14.70;99.90
4548;DHT22;2286;51.570;7.090;2023-09-19T03:27:27;14.70;99.90
4548;DHT22;2286;51.570;7.090;2023-09-19T03:29:54;14.70;99.90
4548;DHT22;2286;51.570;7.090;2023-09-19T03:32:22;14.60;99.90
4548;DHT22;2286;51.570;7.090;2023-09-19T03:34:49;14.70;99.90
4548;DHT22;2286;51.570;7.090;2023-09-19T03:37:16;14.70;99.90
4548;DHT22;2286;51.570;7.090;2023-09-19T03:39:43;14.60;99.90
4548;DHT22;2286;51.570;7.090;2023-09-19T03:42:10;14.60;99.90
4548;DHT22;2286;51.570;7.090;2023-09-19T03:44:39;14.60;99.90
4548;DHT22;2286;51.570;7.090;2023-09-19T03:47:06;14.50;99.90
4548;DHT22;2286;51.570;7.090;2023-09-19T03:49:33;14.50;99.90
4548;DHT22;2286;51.570;7.090;2023-09-19T03:52:00;14.50;99.90
4548;DHT22;2286;51.570;7.090;2023-09-19T03:54:28;14.50;59.10
4548;DHT22;2286;51.570;7.090;2023-09-19T03:56:55;14.50;81.20
4548;DHT22;2286;51.570;7.090;2023-09-19T03:59:22;14.50;91.40
4548;DHT22;2286;51.570;7.090;2023-09-19T04:01:50;14.40;99.90
4548;DHT22;2286;51.570;7.090;2023-09-19T04:04:21;14.40;99.90
4548;DHT22;2286;51.570;7.090;2023-09-19T04:06:50;14.30;99.90
4548;DHT22;2286;51.570;7.090;2023-09-19T04:09:17;14.40;99.90
4548;DHT22;2286;51.570;7.090;2023-09-19T04:11:44;14.30;99.90
4548;DHT22;2286;51.570;7.090;2023-09-19T04:14:11;14.30;99.90
4548;DHT22;2286;51.570;7.090;2023-09-19T04:16:38;14.40;99.90
4548;DHT22;2286;51.570;7.090;2023-09-19T04:19:07;14.30;99.90
4548;DHT22;2286;51.570;7.090;2023-09-19T04:21:34;14.30;99.90
4548;DHT22;2286;51.570;7.090;2023-09-19T04:24:01;14.30;99.90
4548;DHT22;2286;51.570;7.090;2023-09-19T04:26:28;14.30;99.90
4548;DHT22;2286;51.570;7.090;2023-09-19T04:28:55;14.30;99.90
4548;DHT22;2286;51.570;7.090;2023-09-19T04:31:22;14.30;99.90
4548;DHT22;2286;51.570;7.090;2023-09-19T04:33:50;14.30;99.90
4548;DHT22;2286;51.570;7.090;2023-09-19T04:36:18;14.30;99.90
4548;DHT22;2286;51.570;7.090;2023-09-19T04:38:48;14.30;99.90
4548;DHT22;2286;51.570;7.090;2023-09-19T04:41:15;14.40;99.90
4548;DHT22;2286;51.570;7.090;2023-09-19T04:43:42;14.30;99.90
4548;DHT22;2286;51.570;7.090;2023-09-19T04:46:10;14.30;1.00
4548;DHT22;2286;51.570;7.090;2023-09-19T04:48:39;14.30;1.00
4548;DHT22;2286;51.570;7.090;2023-09-19T04:51:07;14.30;1.00
4548;DHT22;2286;51.570;7.090;2023-09-19T04:53:35;14.40;1.00
4548;DHT22;2286;51.570;7.090;2023-09-19T04:56:02;14.30;1.00
4548;DHT22;2286;51.570;7.090;2023-09-19T04:58:32;14.30;1.00
4548;DHT22;2286;51.570;7.090;2023-09-19T05:00:59;14.20;1.00
4548;DHT22;2286;51.570;7.090;2023-09-19T05:03:29;14.20;10.10
4548;DHT22;2286;51.570;7.090;2023-09-19T05:05:57;14.20;75.30
4548;DHT22;2286;51.570;7.090;2023-09-19T05:08:24;14.20;65.30
4548;DHT22;2286;51.570;7.090;2023-09-19T05:10:52;14.20;70.70
4548;DHT22;2286;51.570;7.090;2023-09-19T05:13:21;14.10;99.90
4548;DHT22;2286;51.570;7.090;2023-09-19T05:15:49;14.10;99.90
4548;DHT22;2286;51.570;7.090;2023-09-19T05:18:16;14.10;99.90
4548;DHT22;2286;51.570;7.090;2023-09-19T05:20:43;14.10;99.90
4548;DHT22;2286;51.570;7.090;2023-09-19T05:23:10;14.10;1.00
4548;DHT22;2286;51.570;7.090;2023-09-19T05:25:38;14.10;1.00
4548;DHT22;2286;51.570;7.090;2023-09-19T05:28:08;14.10;1.00
4548;DHT22;2286;51.570;7.090;2023-09-19T05:30:37;14.20;1.00
4548;DHT22;2286;51.570;7.090;2023-09-19T05:33:05;14.20;1.00
4548;DHT22;2286;51.570;7.090;2023-09-19T05:35:33;14.10;1.00
4548;DHT22;2286;51.570;7.090;2023-09-19T05:38:02;14.20;1.00
4548;DHT22;2286;51.570;7.090;2023-09-19T05:40:31;14.20;99.90
4548;DHT22;2286;51.570;7.090;2023-09-19T05:42:58;14.30;99.90
4548;DHT22;2286;51.570;7.090;2023-09-19T05:45:26;14.30;99.90
4548;DHT22;2286;51.570;7.090;2023-09-19T05:47:53;14.30;99.90
4548;DHT22;2286;51.570;7.090;2023-09-19T05:50:26;14.40;99.90
4548;DHT22;2286;51.570;7.090;2023-09-19T05:52:54;14.50;4.10
4548;DHT22;2286;51.570;7.090;2023-09-19T05:55:22;14.60;1.00
4548;DHT22;2286;51.570;7.090;2023-09-19T05:57:50;14.60;1.00
4548;DHT22;2286;51.570;7.090;2023-09-19T06:00:18;14.70;1.00
4548;DHT22;2286;51.570;7.090;2023-09-19T06:02:51;14.70;1.00
4548;DHT22;2286;51.570;7.090;2023-09-19T06:05:19;14.80;1.00
4548;DHT22;2286;51.570;7.090;2023-09-19T06:07:46;14.80;1.00
4548;DHT22;2286;51.570;7.090;2023-09-19T06:10:14;14.90;1.00
4548;DHT22;2286;51.570;7.090;2023-09-19T06:12:42;14.90;99.90
4548;DHT22;2286;51.570;7.090;2023-09-19T06:15:10;14.90;99.90
4548;DHT22;2286;51.570;7.090;2023-09-19T06:17:41;15.00;99.90
4548;DHT22;2286;51.570;7.090;2023-09-19T06:20:10;15.10;99.90
4548;DHT22;2286;51.570;7.090;2023-09-19T06:22:40;15.10;99.90
4548;DHT22;2286;51.570;7.090;2023-09-19T06:25:08;15.10;1.00
4548;DHT22;2286;51.570;7.090;2023-09-19T06:27:37;15.20;1.00
4548;DHT22;2286;51.570;7.090;2023-09-19T06:30:09;15.20;1.00
4548;DHT22;2286;51.570;7.090;2023-09-19T06:32:37;15.20;1.00
4548;DHT22;2286;51.570;7.090;2023-09-19T06:35:04;15.20;1.00
4548;DHT22;2286;51.570;7.090;2023-09-19T06:37:34;15.30;1.00
4548;DHT22;2286;51.570;7.090;2023-09-19T06:40:05;15.40;1.00
4548;DHT22;2286;51.570;7.090;2023-09-19T06:42:34;15.40;1.00
4548;DHT22;2286;51.570;7.090;2023-09-19T06:45:03;15.40;1.00
4548;DHT22;2286;51.570;7.090;2023-09-19T06:47:31;15.40;1.00
4548;DHT22;2286;51.570;7.090;2023-09-19T06:49:58;15.40;1.00
4548;DHT22;2286;51.570;7.090;2023-09-19T06:52:25;15.40;1.00
4548;DHT22;2286;51.570;7.090;2023-09-19T06:54:54;15.50;99.90
4548;DHT22;2286;51.570;7.090;2023-09-19T06:57:22;15.50;99.90
4548;DHT22;2286;51.570;7.090;2023-09-19T06:59:50;15.50;99.90
4548;DHT22;2286;51.570;7.090;2023-09-19T07:02:17;15.50;99.90
4548;DHT22;2286;51.570;7.090;2023-09-19T07:04:45;15.50;99.90
4548;DHT22;2286;51.570;7.090;2023-09-19T07:07:12;15.50;99.90
4548;DHT22;2286;51.570;7.090;2023-09-19T07:09:39;15.60;1.00
4548;DHT22;2286;51.570;7.090;2023-09-19T07:12:09;15.60;99.90
4548;DHT22;2286;51.570;7.090;2023-09-19T07:14:37;15.70;99.90
4548;DHT22;2286;51.570;7.090;2023-09-19T07:17:04;15.80;99.90
4548;DHT22;2286;51.570;7.090;2023-09-19T07:19:31;15.80;99.90
4548;DHT22;2286;51.570;7.090;2023-09-19T07:21:58;15.90;99.90
4548;DHT22;2286;51.570;7.090;2023-09-19T07:24:28;15.90;99.90
4548;DHT22;2286;51.570;7.090;2023-09-19T07:26:55;16.00;99.90
4548;DHT22;2286;51.570;7.090;2023-09-19T07:29:24;16.00;99.90
4548;DHT22;2286;51.570;7.090;2023-09-19T07:31:51;16.00;99.90
4548;DHT22;2286;51.570;7.090;2023-09-19T07:34:19;16.00;99.90
4548;DHT22;2286;51.570;7.090;2023-09-19T07:36:47;16.00;99.90
4548;DHT22;2286;51.570;7.090;2023-09-19T07:39:14;16.10;1.00
4548;DHT22;2286;51.570;7.090;2023-09-19T07:41:41;16.10;1.00
4548;DHT22;2286;51.570;7.090;2023-09-19T07:44:08;16.20;99.90
4548;DHT22;2286;51.570;7.090;2023-09-19T07:46:37;16.20;1.00
4548;DHT22;2286;51.570;7.090;2023-09-19T07:49:05;16.10;99.90
4548;DHT22;2286;51.570;7.090;2023-09-19T07:51:32;16.10;99.90
4548;DHT22;2286;51.570;7.090;2023-09-19T07:53:59;16.20;99.90
4548;DHT22;2286;51.570;7.090;2023-09-19T07:56:26;16.30;1.00
4548;DHT22;2286;51.570;7.090;2023-09-19T07:58:53;16.40;99.90
4548;DHT22;2286;51.570;7.090;2023-09-19T08:01:20;16.50;1.00
4548;DHT22;2286;51.570;7.090;2023-09-19T08:03:50;16.60;99.90
4548;DHT22;2286;51.570;7.090;2023-09-19T08:06:18;16.60;99.90
4548;DHT22;2286;51.570;7.090;2023-09-19T08:08:46;16.60;99.90
4548;DHT22;2286;51.570;7.090;2023-09-19T08:11:15;16.50;99.90
4548;DHT22;2286;51.570;7.090;2023-09-19T08:13:47;16.70;99.90
4548;DHT22;2286;51.570;7.090;2023-09-19T08:16:14;16.80;99.90
4548;DHT22;2286;51.570;7.090;2023-09-19T08:18:42;16.70;99.90
4548;DHT22;2286;51.570;7.090;2023-09-19T08:21:11;16.50;99.90
4548;DHT22;2286;51.570;7.090;2023-09-19T08:23:40;16.70;99.90
4548;DHT22;2286;51.570;7.090;2023-09-19T08:26:07;16.80;99.90
4548;DHT22;2286;51.570;7.090;2023-09-19T08:28:35;16.90;85.40
4548;DHT22;2286;51.570;7.090;2023-09-19T08:31:02;16.80;1.00
4548;DHT22;2286;51.570;7.090;2023-09-19T08:33:32;16.80;2.80
4548;DHT22;2286;51.570;7.090;2023-09-19T08:35:59;16.80;1.00
4548;DHT22;2286;51.570;7.090;2023-09-19T08:38:27;16.70;42.90
4548;DHT22;2286;51.570;7.090;2023-09-19T08:40:57;16.70;26.70
4548;DHT22;2286;51.570;7.090;2023-09-19T08:43:25;16.90;53.50
4548;DHT22;2286;51.570;7.090;2023-09-19T08:45:58;16.90;1.00
4548;DHT22;2286;51.570;7.090;2023-09-19T08:48:29;17.00;1.00
4548;DHT22;2286;51.570;7.090;2023-09-19T08:51:02;17.20;1.00
4548;DHT22;2286;51.570;7.090;2023-09-19T08:53:40;17.70;1.00
4548;DHT22;2286;51.570;7.090;2023-09-19T08:56:10;18.00;99.90
4548;DHT22;2286;51.570;7.090;2023-09-19T08:58:44;17.90;99.90
4548;DHT22;2286;51.570;7.090;2023-09-19T09:01:15;18.00;99.90
4548;DHT22;2286;51.570;7.090;2023-09-19T09:03:43;17.90;99.90
4548;DHT22;2286;51.570;7.090;2023-09-19T09:06:14;17.90;99.90
4548;DHT22;2286;51.570;7.090;2023-09-19T09:08:44;17.60;99.90
4548;DHT22;2286;51.570;7.090;2023-09-19T09:11:11;17.70;99.90
4548;DHT22;2286;51.570;7.090;2023-09-19T09:13:39;17.60;99.90
4548;DHT22;2286;51.570;7.090;2023-09-19T09:16:07;17.90;99.90
4548;DHT22;2286;51.570;7.090;2023-09-19T09:18:34;17.90;99.90
4548;DHT22;2286;51.570;7.090;2023-09-19T09:21:01;18.10;54.10
4548;DHT22;2286;51.570;7.090;2023-09-19T09:23:30;18.30;1.00
4548;DHT22;2286;51.570;7.090;2023-09-19T09:25:59;18.30;1.00
4548;DHT22;2286;51.570;7.090;2023-09-19T09:28:29;18.40;1.00
4548;DHT22;2286;51.570;7.090;2023-09-19T09:30:57;18.60;1.00
4548;DHT22;2286;51.570;7.090;2023-09-19T09:33:25;18.70;1.00
4548;DHT22;2286;51.570;7.090;2023-09-19T09:35:53;18.80;1.00
4548;DHT22;2286;51.570;7.090;2023-09-19T09:38:23;18.40;1.00
4548;DHT22;2286;51.570;7.090;2023-09-19T09:40:53;18.40;1.00
4548;DHT22;2286;51.570;7.090;2023-09-19T09:43:28;18.50;1.00
4548;DHT22;2286;51.570;7.090;2023-09-19T09:46:10;18.80;99.90
4548;DHT22;2286;51.570;7.090;2023-09-19T09:48:56;18.70;99.90
4548;DHT22;2286;51.570;7.090;2023-09-19T09:51:37;18.70;99.90
4548;DHT22;2286;51.570;7.090;2023-09-19T09:54:12;19.10;99.90
4548;DHT22;2286;51.570;7.090;2023-09-19T09:56:52;19.80;99.90
4548;DHT22;2286;51.570;7.090;2023-09-19T09:59:21;20.10;99.90
4548;DHT22;2286;51.570;7.090;2023-09-19T10:01:50;20.70;99.90
4548;DHT22;2286;51.570;7.090;2023-09-19T10:04:27;20.60;99.90
4548;DHT22;2286;51.570;7.090;2023-09-19T10:06:57;20.80;99.90
4548;DHT22;2286;51.570;7.090;2023-09-19T10:09:30;20.60;99.90
4548;DHT22;2286;51.570;7.090;2023-09-19T10:12:05;20.70;99.90
4548;DHT22;2286;51.570;7.090;2023-09-19T10:14:38;20.40;99.90
4548;DHT22;2286;51.570;7.090;2023-09-19T10:17:05;20.50;99.90
4548;DHT22;2286;51.570;7.090;2023-09-19T10:19:37;20.40;99.90
4548;DHT22;2286;51.570;7.090;2023-09-19T10:22:05;21.00;99.90
4548;DHT22;2286;51.570;7.090;2023-09-19T10:24:35;21.00;99.90
4548;DHT22;2286;51.570;7.090;2023-09-19T10:27:06;21.00;99.90
4548;DHT22;2286;51.570;7.090;2023-09-19T10:29:36;21.20;99.90
4548;DHT22;2286;51.570;7.090;2023-09-19T10:32:06;21.00;99.90
4548;DHT22;2286;51.570;7.090;2023-09-19T10:34:35;21.40;99.90
4548;DHT22;2286;51.570;7.090;2023-09-19T10:37:03;21.40;99.90
4548;DHT22;2286;51.570;7.090;2023-09-19T10:39:32;21.10;99.90
4548;DHT22;2286;51.570;7.090;2023-09-19T10:42:03;21.40;99.90
4548;DHT22;2286;51.570;7.090;2023-09-19T10:44:32;22.00;99.90
4548;DHT22;2286;51.570;7.090;2023-09-19T10:47:02;22.70;99.90
4548;DHT22;2286;51.570;7.090;2023-09-19T10:49:32;23.20;99.90
4548;DHT22;2286;51.570;7.090;2023-09-19T10:52:01;23.90;99.90
4548;DHT22;2286;51.570;7.090;2023-09-19T10:54:32;24.00;99.90
4548;DHT22;2286;51.570;7.090;2023-09-19T10:57:03;23.60;99.90
4548;DHT22;2286;51.570;7.090;2023-09-19T10:59:31;24.20;99.90
4548;DHT22;2286;51.570;7.090;2023-09-19T11:02:16;23.70;99.90
4548;DHT22;2286;51.570;7.090;2023-09-19T11:04:44;23.50;99.90
4548;DHT22;2286;51.570;7.090;2023-09-19T11:07:14;23.40;99.90
4548;DHT22;2286;51.570;7.090;2023-09-19T11:09:46;23.30;99.90
4548;DHT22;2286;51.570;7.090;2023-09-19T11:12:26;23.00;99.90
4548;DHT22;2286;51.570;7.090;2023-09-19T11:15:07;22.40;99.90
4548;DHT22;2286;51.570;7.090;2023-09-19T11:17:38;21.60;99.90
4548;DHT22;2286;51.570;7.090;2023-09-19T11:20:19;21.80;99.90
4548;DHT22;2286;51.570;7.090;2023-09-19T11:23:19;22.00;99.90
4548;DHT22;2286;51.570;7.090;2023-09-19T11:25:53;22.80;99.90
4548;DHT22;2286;51.570;7.090;2023-09-19T11:28:33;23.50;99.90
4548;DHT22;2286;51.570;7.090;2023-09-19T11:40:12;24.10;99.90
4548;DHT22;2286;51.570;7.090;2023-09-19T11:42:43;23.40;99.90
4548;DHT22;2286;51.570;7.090;2023-09-19T11:48:23;22.80;99.90
4548;DHT22;2286;51.570;7.090;2023-09-19T11:50:52;23.10;99.90
4548;DHT22;2286;51.570;7.090;2023-09-19T11:53:21;23.20;99.90
4548;DHT22;2286;51.570;7.090;2023-09-19T11:55:51;23.50;99.90
4548;DHT22;2286;51.570;7.090;2023-09-19T11:58:18;22.90;99.90
4548;DHT22;2286;51.570;7.090;2023-09-19T12:00:46;22.70;99.90
4548;DHT22;2286;51.570;7.090;2023-09-19T12:03:21;22.60;99.90
4548;DHT22;2286;51.570;7.090;2023-09-19T12:05:51;22.90;99.90
4548;DHT22;2286;51.570;7.090;2023-09-19T12:08:18;23.10;99.90
4548;DHT22;2286;51.570;7.090;2023-09-19T12:10:48;23.10;99.90
4548;DHT22;2286;51.570;7.090;2023-09-19T12:13:20;23.70;99.90
4548;DHT22;2286;51.570;7.090;2023-09-19T12:15:47;23.10;99.90
4548;DHT22;2286;51.570;7.090;2023-09-19T12:18:35;22.40;99.90
4548;DHT22;2286;51.570;7.090;2023-09-19T12:21:02;22.60;99.90
4548;DHT22;2286;51.570;7.090;2023-09-19T12:23:32;23.00;99.90
4548;DHT22;2286;51.570;7.090;2023-09-19T12:26:03;23.10;99.90
4548;DHT22;2286;51.570;7.090;2023-09-19T12:28:41;24.00;99.90
4548;DHT22;2286;51.570;7.090;2023-09-19T12:31:09;24.80;99.90
4548;DHT22;2286;51.570;7.090;2023-09-19T12:33:37;25.10;99.90
4548;DHT22;2286;51.570;7.090;2023-09-19T12:36:20;25.80;99.90
4548;DHT22;2286;51.570;7.090;2023-09-19T12:38:50;26.20;99.90
4548;DHT22;2286;51.570;7.090;2023-09-19T12:41:21;26.30;99.90
4548;DHT22;2286;51.570;7.090;2023-09-19T12:43:49;26.60;99.90
4548;DHT22;2286;51.570;7.090;2023-09-19T12:46:20;27.00;99.90
4548;DHT22;2286;51.570;7.090;2023-09-19T12:49:14;26.80;99.90
4548;DHT22;2286;51.570;7.090;2023-09-19T12:51:43;26.10;99.90
4548;DHT22;2286;51.570;7.090;2023-09-19T12:54:10;26.10;99.90
4548;DHT22;2286;51.570;7.090;2023-09-19T12:56:41;26.20;99.90
4548;DHT22;2286;51.570;7.090;2023-09-19T12:59:12;26.60;99.90
4548;DHT22;2286;51.570;7.090;2023-09-19T13:01:40;27.50;99.90
4548;DHT22;2286;51.570;7.090;2023-09-19T13:04:15;28.10;99.90
4548;DHT22;2286;51.570;7.090;2023-09-19T13:06:45;28.20;99.90
4548;DHT22;2286;51.570;7.090;2023-09-19T13:09:14;27.20;99.90
4548;DHT22;2286;51.570;7.090;2023-09-19T13:11:42;26.70;99.90
4548;DHT22;2286;51.570;7.090;2023-09-19T13:14:18;26.60;99.90
4548;DHT22;2286;51.570;7.090;2023-09-19T13:16:59;26.50;99.90
4548;DHT22;2286;51.570;7.090;2023-09-19T13:19:37;26.40;99.90
4548;DHT22;2286;51.570;7.090;2023-09-19T13:22:05;27.50;99.90
4548;DHT22;2286;51.570;7.090;2023-09-19T13:24:34;27.40;99.90
4548;DHT22;2286;51.570;7.090;2023-09-19T13:27:05;27.10;99.90
4548;DHT22;2286;51.570;7.090;2023-09-19T13:29:34;27.90;99.90
4548;DHT22;2286;51.570;7.090;2023-09-19T13:32:02;27.80;99.90
4548;DHT22;2286;51.570;7.090;2023-09-19T13:34:30;27.70;99.90
4548;DHT22;2286;51.570;7.090;2023-09-19T13:36:57;28.20;99.90
4548;DHT22;2286;51.570;7.090;2023-09-19T13:39:25;28.00;99.90
4548;DHT22;2286;51.570;7.090;2023-09-19T13:41:52;27.30;99.90
4548;DHT22;2286;51.570;7.090;2023-09-19T13:44:19;27.20;99.90
4548;DHT22;2286;51.570;7.090;2023-09-19T13:46:47;26.70;99.90
4548;DHT22;2286;51.570;7.090;2023-09-19T13:49:14;25.40;99.90
4548;DHT22;2286;51.570;7.090;2023-09-19T13:51:43;24.60;99.90
4548;DHT22;2286;51.570;7.090;2023-09-19T13:54:10;24.20;99.90
4548;DHT22;2286;51.570;7.090;2023-09-19T13:56:38;23.90;99.90
4548;DHT22;2286;51.570;7.090;2023-09-19T13:59:05;23.50;99.90
4548;DHT22;2286;51.570;7.090;2023-09-19T14:01:32;23.30;99.90
4548;DHT22;2286;51.570;7.090;2023-09-19T14:04:01;22.70;99.90
4548;DHT22;2286;51.570;7.090;2023-09-19T14:06:28;22.40;99.90
4548;DHT22;2286;51.570;7.090;2023-09-19T14:08:55;21.90;99.90
4548;DHT22;2286;51.570;7.090;2023-09-19T14:11:22;21.80;99.90
4548;DHT22;2286;51.570;7.090;2023-09-19T14:13:49;22.00;99.90
4548;DHT22;2286;51.570;7.090;2023-09-19T14:16:17;21.90;99.90
4548;DHT22;2286;51.570;7.090;2023-09-19T14:18:45;21.80;99.90
4548;DHT22;2286;51.570;7.090;2023-09-19T14:21:14;21.70;99.90
4548;DHT22;2286;51.570;7.090;2023-09-19T14:23:41;21.50;99.90
4548;DHT22;2286;51.570;7.090;2023-09-19T14:26:09;21.20;99.90
4548;DHT22;2286;51.570;7.090;2023-09-19T14:28:36;21.20;99.90
4548;DHT22;2286;51.570;7.090;2023-09-19T14:31:05;21.10;99.90
4548;DHT22;2286;51.570;7.090;2023-09-19T14:33:32;21.00;99.90
4548;DHT22;2286;51.570;7.090;2023-09-19T14:36:02;20.90;99.90
4548;DHT22;2286;51.570;7.090;2023-09-19T14:38:33;20.80;99.90
4548;DHT22;2286;51.570;7.090;2023-09-19T14:41:01;20.80;99.90
4548;DHT22;2286;51.570;7.090;2023-09-19T14:43:28;20.80;99.90
4548;DHT22;2286;51.570;7.090;2023-09-19T14:45:56;20.80;99.90
4548;DHT22;2286;51.570;7.090;2023-09-19T14:48:23;20.80;99.90
4548;DHT22;2286;51.570;7.090;2023-09-19T14:50:51;20.60;99.90
4548;DHT22;2286;51.570;7.090;2023-09-19T14:53:19;20.60;99.90
4548;DHT22;2286;51.570;7.090;2023-09-19T14:55:47;20.70;99.90
4548;DHT22;2286;51.570;7.090;2023-09-19T14:58:17;20.70;99.90
4548;DHT22;2286;51.570;7.090;2023-09-19T15:00:45;20.70;99.90
4548;DHT22;2286;51.570;7.090;2023-09-19T15:03:12;20.60;99.90
4548;DHT22;2286;51.570;7.090;2023-09-19T15:05:40;20.60;99.90
4548;DHT22;2286;51.570;7.090;2023-09-19T15:08:07;20.60;99.90
4548;DHT22;2286;51.570;7.090;2023-09-19T15:10:34;20.50;99.90
4548;DHT22;2286;51.570;7.090;2023-09-19T15:13:03;20.50;99.90
4548;DHT22;2286;51.570;7.090;2023-09-19T15:15:31;20.50;99.90
4548;DHT22;2286;51.570;7.090;2023-09-19T15:17:59;20.50;99.90
4548;DHT22;2286;51.570;7.090;2023-09-19T15:20:26;20.40;99.90
4548;DHT22;2286;51.570;7.090;2023-09-19T15:22:53;20.30;99.90
4548;DHT22;2286;51.570;7.090;2023-09-19T15:25:20;20.20;99.90
4548;DHT22;2286;51.570;7.090;2023-09-19T15:27:47;20.30;99.90
4548;DHT22;2286;51.570;7.090;2023-09-19T15:30:17;20.30;99.90
4548;DHT22;2286;51.570;7.090;2023-09-19T15:32:44;20.30;99.90
4548;DHT22;2286;51.570;7.090;2023-09-19T15:35:11;20.50;99.90
4548;DHT22;2286;51.570;7.090;2023-09-19T15:37:39;20.80;99.90
4548;DHT22;2286;51.570;7.090;2023-09-19T15:40:08;20.80;99.90
4548;DHT22;2286;51.570;7.090;2023-09-19T15:42:39;20.70;99.90
4548;DHT22;2286;51.570;7.090;2023-09-19T15:45:07;20.90;99.90
4548;DHT22;2286;51.570;7.090;2023-09-19T15:47:38;21.00;99.90
4548;DHT22;2286;51.570;7.090;2023-09-19T15:50:05;21.40;99.90
4548;DHT22;2286;51.570;7.090;2023-09-19T15:52:35;21.60;99.90
4548;DHT22;2286;51.570;7.090;2023-09-19T15:55:03;21.50;99.90
4548;DHT22;2286;51.570;7.090;2023-09-19T15:57:32;22.10;99.90
4548;DHT22;2286;51.570;7.090;2023-09-19T16:00:00;22.00;99.90
4548;DHT22;2286;51.570;7.090;2023-09-19T16:02:28;21.60;99.90
4548;DHT22;2286;51.570;7.090;2023-09-19T16:04:57;21.20;99.90
4548;DHT22;2286;51.570;7.090;2023-09-19T16:07:24;20.80;99.90
4548;DHT22;2286;51.570;7.090;2023-09-19T16:09:52;20.60;99.90
4548;DHT22;2286;51.570;7.090;2023-09-19T16:12:19;20.50;99.90
4548;DHT22;2286;51.570;7.090;2023-09-19T16:14:46;20.40;99.90
4548;DHT22;2286;51.570;7.090;2023-09-19T16:17:13;20.30;99.90
4548;DHT22;2286;51.570;7.090;2023-09-19T16:19:40;20.30;99.90
4548;DHT22;2286;51.570;7.090;2023-09-19T16:22:09;20.10;99.90
4548;DHT22;2286;51.570;7.090;2023-09-19T16:24:37;20.00;99.90
4548;DHT22;2286;51.570;7.090;2023-09-19T16:27:04;20.00;99.90
4548;DHT22;2286;51.570;7.090;2023-09-19T16:29:32;20.00;99.90
4548;DHT22;2286;51.570;7.090;2023-09-19T16:31:59;19.90;99.90